Murree Weather



Murree's Current Weather

Temprature 26.12o haze

haze

Rain: 0 %

Min Temprature25o
Max Temprature27.22o
Humidity73
Wind Speed3.6 m/h
Sun Rise05:33:33
Sun Set18:45:18
Current Time: 23-Aug-2019 05:04:45
Lat/Lon: 33.91, 73.39




Murree's Geo Location



Murree's Weather Forecast

Time Overall Temp Min Temp Max Temp Humidity Wind Speed Rain
23-Aug-2019 (Fri)
08:00:00 clear sky 29.640 27.427 29.640 59 1.02 m/h 0 %
11:00:00 clear sky 32.610 30.950 32.610 47 1.95 m/h 0 %
14:00:00 clear sky 33.540 32.431 33.540 42 1.65 m/h 0 %
17:00:00 clear sky 32.770 32.211 32.770 46 1.37 m/h 0 %
20:00:00 clear sky 26.750 26.750 26.750 57 2.31 m/h 0 %
23:00:00 clear sky 25.442 25.442 25.442 62 2.5 m/h 0 %
24-Aug-2019 (Sat)
02:00:00 clear sky 24.831 24.831 24.831 60 2.78 m/h 0 %
05:00:00 clear sky 23.955 23.955 23.955 59 1.54 m/h 0 %
08:00:00 clear sky 27.707 27.707 27.707 55 1.09 m/h 0 %
11:00:00 clear sky 31.569 31.569 31.569 44 1.66 m/h 0 %
14:00:00 clear sky 33.169 33.169 33.169 40 1.66 m/h 0 %
17:00:00 clear sky 32.923 32.923 32.923 43 0.92 m/h 0 %
20:00:00 clear sky 27.350 27.350 27.350 53 2.61 m/h 0 %
23:00:00 clear sky 26.169 26.169 26.169 55 2.81 m/h 0 %
25-Aug-2019 (Sun)
02:00:00 light rain 25.431 25.431 25.431 54 3.12 m/h 6 %
05:00:00 light rain 24.057 24.057 24.057 55 1.15 m/h 6 %
08:00:00 light rain 28.214 28.214 28.214 55 1.76 m/h 6 %
11:00:00 clear sky 32.516 32.516 32.516 44 1.07 m/h 0 %
14:00:00 clear sky 34.050 34.050 34.050 39 1.98 m/h 0 %
17:00:00 clear sky 33.250 33.250 33.250 47 1.77 m/h 0 %
20:00:00 clear sky 27.881 27.881 27.881 52 2.95 m/h 0 %
23:00:00 clear sky 26.811 26.811 26.811 54 3 m/h 0 %
26-Aug-2019 (Mon)
02:00:00 light rain 24.965 24.965 24.965 62 0.75 m/h 25 %
05:00:00 light rain 23.150 23.150 23.150 74 1.26 m/h 119 %
08:00:00 light rain 27.767 27.767 27.767 62 1.04 m/h 63 %
11:00:00 light rain 31.572 31.572 31.572 49 1.33 m/h 88 %
14:00:00 clear sky 32.984 32.984 32.984 44 2.24 m/h 0 %
17:00:00 few clouds 32.020 32.020 32.020 51 1.92 m/h 0 %
20:00:00 clear sky 27.472 27.472 27.472 57 2.71 m/h 0 %
23:00:00 clear sky 26.714 26.714 26.714 58 2.77 m/h 0 %
27-Aug-2019 (Tue)
02:00:00 clear sky 25.616 25.616 25.616 61 2.33 m/h 0 %
05:00:00 clear sky 24.650 24.650 24.650 62 0.98 m/h 0 %
08:00:00 clear sky 28.035 28.035 28.035 58 0.75 m/h 0 %
11:00:00 few clouds 31.636 31.636 31.636 49 1.81 m/h 0 %
14:00:00 scattered clouds 33.236 33.236 33.236 44 1.76 m/h 0 %
17:00:00 scattered clouds 33.165 33.165 33.165 45 1.04 m/h 0 %
20:00:00 clear sky 28.050 28.050 28.050 56 2.56 m/h 0 %
23:00:00 scattered clouds 27.150 27.150 27.150 58 1.9 m/h 0 %
28-Aug-2019 (Wed)
02:00:00 broken clouds 25.857 25.857 25.857 61 1.7 m/h 0 %
05:00:00 broken clouds 25.072 25.072 25.072 65 1.08 m/h 0 %

Famous Cities (61)